sensor_id;sensor_type;location;lat;lon;timestamp;temperature;humidity
13711;DHT22;6927;51.256;9.410;2024-03-08T00:00:27;2.30;1.00
13711;DHT22;6927;51.256;9.410;2024-03-08T00:02:53;2.30;1.00
13711;DHT22;6927;51.256;9.410;2024-03-08T00:05:19;2.30;1.00
13711;DHT22;6927;51.256;9.410;2024-03-08T00:07:45;2.30;1.00
13711;DHT22;6927;51.256;9.410;2024-03-08T00:10:12;2.30;1.00
13711;DHT22;6927;51.256;9.410;2024-03-08T00:12:45;2.40;1.00
13711;DHT22;6927;51.256;9.410;2024-03-08T00:15:12;2.30;1.00
13711;DHT22;6927;51.256;9.410;2024-03-08T00:17:40;2.30;1.00
13711;DHT22;6927;51.256;9.410;2024-03-08T00:20:07;2.20;1.00
13711;DHT22;6927;51.256;9.410;2024-03-08T00:22:36;2.10;1.00
13711;DHT22;6927;51.256;9.410;2024-03-08T00:25:03;2.10;1.00
13711;DHT22;6927;51.256;9.410;2024-03-08T00:27:30;2.10;1.00
13711;DHT22;6927;51.256;9.410;2024-03-08T00:29:56;2.10;1.00
13711;DHT22;6927;51.256;9.410;2024-03-08T00:32:22;2.00;1.00
13711;DHT22;6927;51.256;9.410;2024-03-08T00:34:49;2.00;1.00
13711;DHT22;6927;51.256;9.410;2024-03-08T00:37:17;2.10;1.00
13711;DHT22;6927;51.256;9.410;2024-03-08T00:39:43;2.10;1.00
13711;DHT22;6927;51.256;9.410;2024-03-08T00:42:09;2.00;1.00
13711;DHT22;6927;51.256;9.410;2024-03-08T00:44:34;2.00;1.00
13711;DHT22;6927;51.256;9.410;2024-03-08T00:47:00;1.90;1.00
13711;DHT22;6927;51.256;9.410;2024-03-08T00:49:25;1.90;1.00
13711;DHT22;6927;51.256;9.410;2024-03-08T00:51:51;1.80;99.90
13711;DHT22;6927;51.256;9.410;2024-03-08T00:54:16;1.70;1.00
13711;DHT22;6927;51.256;9.410;2024-03-08T00:56:42;1.70;1.00
13711;DHT22;6927;51.256;9.410;2024-03-08T00:59:08;1.70;1.00
13711;DHT22;6927;51.256;9.410;2024-03-08T01:01:33;1.60;1.00
13711;DHT22;6927;51.256;9.410;2024-03-08T01:03:59;1.60;1.00
13711;DHT22;6927;51.256;9.410;2024-03-08T01:06:24;1.50;1.00
13711;DHT22;6927;51.256;9.410;2024-03-08T01:08:50;1.50;1.00
13711;DHT22;6927;51.256;9.410;2024-03-08T01:11:18;1.40;1.00
13711;DHT22;6927;51.256;9.410;2024-03-08T01:13:44;1.40;1.00
13711;DHT22;6927;51.256;9.410;2024-03-08T01:16:12;1.30;1.00
13711;DHT22;6927;51.256;9.410;2024-03-08T01:18:38;1.30;1.00
13711;DHT22;6927;51.256;9.410;2024-03-08T01:21:04;1.30;1.00
13711;DHT22;6927;51.256;9.410;2024-03-08T01:23:33;1.30;1.00
13711;DHT22;6927;51.256;9.410;2024-03-08T01:26:00;1.30;1.00
13711;DHT22;6927;51.256;9.410;2024-03-08T01:28:27;1.30;1.00
13711;DHT22;6927;51.256;9.410;2024-03-08T01:30:53;1.30;1.00
13711;DHT22;6927;51.256;9.410;2024-03-08T01:33:23;1.30;1.00
13711;DHT22;6927;51.256;9.410;2024-03-08T01:35:49;1.20;1.00
13711;DHT22;6927;51.256;9.410;2024-03-08T01:38:18;1.20;1.00
13711;DHT22;6927;51.256;9.410;2024-03-08T01:40:44;1.20;1.00
13711;DHT22;6927;51.256;9.410;2024-03-08T01:43:18;1.20;1.00
13711;DHT22;6927;51.256;9.410;2024-03-08T01:45:43;1.20;1.00
13711;DHT22;6927;51.256;9.410;2024-03-08T01:48:09;1.20;1.00
13711;DHT22;6927;51.256;9.410;2024-03-08T01:50:35;1.20;1.00
13711;DHT22;6927;51.256;9.410;2024-03-08T01:53:02;1.20;1.00
13711;DHT22;6927;51.256;9.410;2024-03-08T01:55:28;1.20;1.00
13711;DHT22;6927;51.256;9.410;2024-03-08T01:57:54;1.20;1.00
13711;DHT22;6927;51.256;9.410;2024-03-08T02:00:21;1.10;1.00
13711;DHT22;6927;51.256;9.410;2024-03-08T02:02:47;1.10;1.00
13711;DHT22;6927;51.256;9.410;2024-03-08T02:05:14;1.10;1.00
13711;DHT22;6927;51.256;9.410;2024-03-08T02:07:41;1.10;1.00
13711;DHT22;6927;51.256;9.410;2024-03-08T02:10:10;1.10;1.00
13711;DHT22;6927;51.256;9.410;2024-03-08T02:12:36;1.10;1.00
13711;DHT22;6927;51.256;9.410;2024-03-08T02:15:03;1.10;1.00
13711;DHT22;6927;51.256;9.410;2024-03-08T02:17:29;1.10;1.00
13711;DHT22;6927;51.256;9.410;2024-03-08T02:19:55;1.10;1.00
13711;DHT22;6927;51.256;9.410;2024-03-08T02:22:22;1.20;1.00
13711;DHT22;6927;51.256;9.410;2024-03-08T02:24:47;1.10;1.00
13711;DHT22;6927;51.256;9.410;2024-03-08T02:27:22;1.00;1.00
13711;DHT22;6927;51.256;9.410;2024-03-08T02:29:48;1.00;1.00
13711;DHT22;6927;51.256;9.410;2024-03-08T02:32:14;1.00;1.00
13711;DHT22;6927;51.256;9.410;2024-03-08T02:34:41;1.00;1.00
13711;DHT22;6927;51.256;9.410;2024-03-08T02:37:06;0.90;1.00
13711;DHT22;6927;51.256;9.410;2024-03-08T02:39:34;0.90;1.00
13711;DHT22;6927;51.256;9.410;2024-03-08T02:41:59;0.90;1.00
13711;DHT22;6927;51.256;9.410;2024-03-08T02:44:25;0.90;1.00
13711;DHT22;6927;51.256;9.410;2024-03-08T02:46:51;0.80;1.00
13711;DHT22;6927;51.256;9.410;2024-03-08T02:49:16;0.80;1.00
13711;DHT22;6927;51.256;9.410;2024-03-08T02:51:42;0.80;1.00
13711;DHT22;6927;51.256;9.410;2024-03-08T02:54:08;0.80;1.00
13711;DHT22;6927;51.256;9.410;2024-03-08T02:56:35;0.80;1.00
13711;DHT22;6927;51.256;9.410;2024-03-08T02:59:01;0.70;1.00
13711;DHT22;6927;51.256;9.410;2024-03-08T03:01:26;0.70;1.00
13711;DHT22;6927;51.256;9.410;2024-03-08T03:03:52;0.70;1.00
13711;DHT22;6927;51.256;9.410;2024-03-08T03:06:18;0.70;1.00
13711;DHT22;6927;51.256;9.410;2024-03-08T03:08:46;0.60;1.00
13711;DHT22;6927;51.256;9.410;2024-03-08T03:11:12;0.60;1.00
13711;DHT22;6927;51.256;9.410;2024-03-08T03:13:40;0.60;1.00
13711;DHT22;6927;51.256;9.410;2024-03-08T03:16:07;0.50;1.00
13711;DHT22;6927;51.256;9.410;2024-03-08T03:18:33;0.60;1.00
13711;DHT22;6927;51.256;9.410;2024-03-08T03:20:58;0.60;1.00
13711;DHT22;6927;51.256;9.410;2024-03-08T03:23:24;0.60;1.00
13711;DHT22;6927;51.256;9.410;2024-03-08T03:25:51;0.60;1.00
13711;DHT22;6927;51.256;9.410;2024-03-08T03:28:18;0.70;1.00
13711;DHT22;6927;51.256;9.410;2024-03-08T03:30:47;0.70;1.00
13711;DHT22;6927;51.256;9.410;2024-03-08T03:33:12;0.80;1.00
13711;DHT22;6927;51.256;9.410;2024-03-08T03:35:40;0.70;1.00
13711;DHT22;6927;51.256;9.410;2024-03-08T03:38:06;0.80;1.00
13711;DHT22;6927;51.256;9.410;2024-03-08T03:40:33;0.80;1.00
13711;DHT22;6927;51.256;9.410;2024-03-08T03:42:59;0.80;1.00
13711;DHT22;6927;51.256;9.410;2024-03-08T03:45:25;0.80;1.00
13711;DHT22;6927;51.256;9.410;2024-03-08T03:47:50;0.80;1.00
13711;DHT22;6927;51.256;9.410;2024-03-08T03:50:18;0.80;1.00
13711;DHT22;6927;51.256;9.410;2024-03-08T03:52:47;0.80;1.00
13711;DHT22;6927;51.256;9.410;2024-03-08T03:55:14;0.80;1.00
13711;DHT22;6927;51.256;9.410;2024-03-08T03:57:40;0.80;1.00
13711;DHT22;6927;51.256;9.410;2024-03-08T04:00:07;0.70;1.00
13711;DHT22;6927;51.256;9.410;2024-03-08T04:02:37;0.70;1.00
13711;DHT22;6927;51.256;9.410;2024-03-08T04:05:05;0.60;1.00
13711;DHT22;6927;51.256;9.410;2024-03-08T04:07:31;0.50;1.00
13711;DHT22;6927;51.256;9.410;2024-03-08T04:09:57;0.40;1.00
13711;DHT22;6927;51.256;9.410;2024-03-08T04:12:22;0.30;1.00
13711;DHT22;6927;51.256;9.410;2024-03-08T04:14:48;0.20;1.00
13711;DHT22;6927;51.256;9.410;2024-03-08T04:17:14;0.20;1.00
13711;DHT22;6927;51.256;9.410;2024-03-08T04:19:39;0.10;1.00
13711;DHT22;6927;51.256;9.410;2024-03-08T04:22:06;0.00;1.00
13711;DHT22;6927;51.256;9.410;2024-03-08T04:24:33;0.00;1.00
13711;DHT22;6927;51.256;9.410;2024-03-08T04:26:58;0.00;1.00
13711;DHT22;6927;51.256;9.410;2024-03-08T04:29:24;0.00;1.00
13711;DHT22;6927;51.256;9.410;2024-03-08T04:31:50;0.00;1.00
13711;DHT22;6927;51.256;9.410;2024-03-08T04:34:22;0.10;1.00
13711;DHT22;6927;51.256;9.410;2024-03-08T04:36:48;0.00;1.00
13711;DHT22;6927;51.256;9.410;2024-03-08T04:39:14;0.00;1.00
13711;DHT22;6927;51.256;9.410;2024-03-08T04:41:41;0.00;1.00
13711;DHT22;6927;51.256;9.410;2024-03-08T04:44:10;0.00;1.00
13711;DHT22;6927;51.256;9.410;2024-03-08T04:46:36;0.10;1.00
13711;DHT22;6927;51.256;9.410;2024-03-08T04:49:01;0.10;1.00
13711;DHT22;6927;51.256;9.410;2024-03-08T04:51:27;0.20;1.00
13711;DHT22;6927;51.256;9.410;2024-03-08T04:53:53;0.30;1.00
13711;DHT22;6927;51.256;9.410;2024-03-08T04:56:19;0.40;1.00
13711;DHT22;6927;51.256;9.410;2024-03-08T04:58:45;0.40;1.00
13711;DHT22;6927;51.256;9.410;2024-03-08T05:01:12;0.40;1.00
13711;DHT22;6927;51.256;9.410;2024-03-08T05:03:38;0.50;1.00
13711;DHT22;6927;51.256;9.410;2024-03-08T05:06:05;0.50;1.00
13711;DHT22;6927;51.256;9.410;2024-03-08T05:08:30;0.50;1.00
13711;DHT22;6927;51.256;9.410;2024-03-08T05:10:56;0.50;1.00
13711;DHT22;6927;51.256;9.410;2024-03-08T05:13:22;0.50;1.00
13711;DHT22;6927;51.256;9.410;2024-03-08T05:15:49;0.40;1.00
13711;DHT22;6927;51.256;9.410;2024-03-08T05:18:16;0.40;1.00
13711;DHT22;6927;51.256;9.410;2024-03-08T05:20:45;0.40;1.00
13711;DHT22;6927;51.256;9.410;2024-03-08T05:23:11;0.40;1.00
13711;DHT22;6927;51.256;9.410;2024-03-08T05:25:37;0.50;1.00
13711;DHT22;6927;51.256;9.410;2024-03-08T05:28:03;0.50;1.00
13711;DHT22;6927;51.256;9.410;2024-03-08T05:30:29;0.50;1.00
13711;DHT22;6927;51.256;9.410;2024-03-08T05:32:55;0.50;1.00
13711;DHT22;6927;51.256;9.410;2024-03-08T05:35:22;0.50;1.00
13711;DHT22;6927;51.256;9.410;2024-03-08T05:37:47;0.40;1.00
13711;DHT22;6927;51.256;9.410;2024-03-08T05:40:14;0.50;1.00
13711;DHT22;6927;51.256;9.410;2024-03-08T05:42:40;0.50;1.00
13711;DHT22;6927;51.256;9.410;2024-03-08T05:45:06;0.50;1.00
13711;DHT22;6927;51.256;9.410;2024-03-08T05:47:32;0.50;1.00
13711;DHT22;6927;51.256;9.410;2024-03-08T05:50:01;0.50;1.00
13711;DHT22;6927;51.256;9.410;2024-03-08T05:52:27;0.40;1.00
13711;DHT22;6927;51.256;9.410;2024-03-08T05:54:53;0.40;1.00
13711;DHT22;6927;51.256;9.410;2024-03-08T05:57:18;0.40;1.00
13711;DHT22;6927;51.256;9.410;2024-03-08T05:59:44;0.40;1.00
13711;DHT22;6927;51.256;9.410;2024-03-08T06:02:10;0.40;1.00
13711;DHT22;6927;51.256;9.410;2024-03-08T06:04:35;0.40;1.00
13711;DHT22;6927;51.256;9.410;2024-03-08T06:07:01;0.30;1.00
13711;DHT22;6927;51.256;9.410;2024-03-08T06:09:28;0.30;1.00
13711;DHT22;6927;51.256;9.410;2024-03-08T06:11:54;0.30;1.00
13711;DHT22;6927;51.256;9.410;2024-03-08T06:14:20;0.40;1.00
13711;DHT22;6927;51.256;9.410;2024-03-08T06:16:46;0.60;1.00
13711;DHT22;6927;51.256;9.410;2024-03-08T06:19:12;0.90;1.00
13711;DHT22;6927;51.256;9.410;2024-03-08T06:21:38;1.30;1.00
13711;DHT22;6927;51.256;9.410;2024-03-08T06:24:04;1.60;1.00
13711;DHT22;6927;51.256;9.410;2024-03-08T06:26:30;2.00;1.00
13711;DHT22;6927;51.256;9.410;2024-03-08T06:28:56;2.30;1.00
13711;DHT22;6927;51.256;9.410;2024-03-08T06:31:22;2.60;99.90
13711;DHT22;6927;51.256;9.410;2024-03-08T06:33:48;2.80;99.90
13711;DHT22;6927;51.256;9.410;2024-03-08T06:36:16;2.90;99.90
13711;DHT22;6927;51.256;9.410;2024-03-08T06:38:47;3.10;99.90
13711;DHT22;6927;51.256;9.410;2024-03-08T06:41:13;3.40;99.90
13711;DHT22;6927;51.256;9.410;2024-03-08T06:43:44;3.40;99.90
13711;DHT22;6927;51.256;9.410;2024-03-08T06:46:11;3.30;99.90
13711;DHT22;6927;51.256;9.410;2024-03-08T06:48:39;3.40;99.90
13711;DHT22;6927;51.256;9.410;2024-03-08T06:51:05;3.40;99.90
13711;DHT22;6927;51.256;9.410;2024-03-08T06:53:31;3.50;99.90
13711;DHT22;6927;51.256;9.410;2024-03-08T06:56:00;3.70;99.90
13711;DHT22;6927;51.256;9.410;2024-03-08T06:58:25;4.00;99.90
13711;DHT22;6927;51.256;9.410;2024-03-08T07:00:51;4.20;99.90
13711;DHT22;6927;51.256;9.410;2024-03-08T07:03:20;4.10;99.90
13711;DHT22;6927;51.256;9.410;2024-03-08T07:05:47;4.00;99.90
13711;DHT22;6927;51.256;9.410;2024-03-08T07:08:13;4.10;99.90
13711;DHT22;6927;51.256;9.410;2024-03-08T07:10:39;4.10;99.90
13711;DHT22;6927;51.256;9.410;2024-03-08T07:13:07;4.30;99.90
13711;DHT22;6927;51.256;9.410;2024-03-08T07:15:32;4.40;99.90
13711;DHT22;6927;51.256;9.410;2024-03-08T07:17:59;4.60;99.90
13711;DHT22;6927;51.256;9.410;2024-03-08T07:20:25;4.70;99.90
13711;DHT22;6927;51.256;9.410;2024-03-08T07:22:51;4.70;99.90
13711;DHT22;6927;51.256;9.410;2024-03-08T07:25:16;4.70;99.90
13711;DHT22;6927;51.256;9.410;2024-03-08T07:27:53;4.90;99.90
13711;DHT22;6927;51.256;9.410;2024-03-08T07:30:24;4.90;99.90
13711;DHT22;6927;51.256;9.410;2024-03-08T07:33:09;4.80;99.90
13711;DHT22;6927;51.256;9.410;2024-03-08T07:35:37;4.60;99.90
13711;DHT22;6927;51.256;9.410;2024-03-08T07:38:07;4.60;99.90
13711;DHT22;6927;51.256;9.410;2024-03-08T07:40:41;4.70;99.90
13711;DHT22;6927;51.256;9.410;2024-03-08T07:43:10;4.80;99.90
13711;DHT22;6927;51.256;9.410;2024-03-08T07:45:39;4.60;99.90
13711;DHT22;6927;51.256;9.410;2024-03-08T07:48:05;4.30;99.90
13711;DHT22;6927;51.256;9.410;2024-03-08T07:50:38;4.60;99.90
13711;DHT22;6927;51.256;9.410;2024-03-08T07:53:05;5.30;99.90
13711;DHT22;6927;51.256;9.410;2024-03-08T07:55:34;6.00;99.90
13711;DHT22;6927;51.256;9.410;2024-03-08T07:58:00;6.20;99.90
13711;DHT22;6927;51.256;9.410;2024-03-08T08:00:26;6.40;99.90
13711;DHT22;6927;51.256;9.410;2024-03-08T08:02:53;6.50;1.00
13711;DHT22;6927;51.256;9.410;2024-03-08T08:05:19;6.10;1.00
13711;DHT22;6927;51.256;9.410;2024-03-08T08:07:45;5.60;99.90
13711;DHT22;6927;51.256;9.410;2024-03-08T08:10:12;5.80;99.90
13711;DHT22;6927;51.256;9.410;2024-03-08T08:12:47;5.80;99.90
13711;DHT22;6927;51.256;9.410;2024-03-08T08:15:12;6.10;99.90
13711;DHT22;6927;51.256;9.410;2024-03-08T08:17:38;5.90;1.00
13711;DHT22;6927;51.256;9.410;2024-03-08T08:20:04;6.10;1.00
13711;DHT22;6927;51.256;9.410;2024-03-08T08:22:31;6.40;1.00
13711;DHT22;6927;51.256;9.410;2024-03-08T08:24:56;6.80;1.00
13711;DHT22;6927;51.256;9.410;2024-03-08T08:27:22;7.00;99.90
13711;DHT22;6927;51.256;9.410;2024-03-08T08:29:47;7.20;99.90
13711;DHT22;6927;51.256;9.410;2024-03-08T08:32:15;7.50;1.00
13711;DHT22;6927;51.256;9.410;2024-03-08T08:34:40;7.40;99.90
13711;DHT22;6927;51.256;9.410;2024-03-08T08:37:07;6.90;99.90
13711;DHT22;6927;51.256;9.410;2024-03-08T08:39:35;6.40;1.00
13711;DHT22;6927;51.256;9.410;2024-03-08T08:42:00;6.70;1.00
13711;DHT22;6927;51.256;9.410;2024-03-08T08:44:28;6.90;1.00
13711;DHT22;6927;51.256;9.410;2024-03-08T08:46:53;6.80;1.00
13711;DHT22;6927;51.256;9.410;2024-03-08T08:49:19;7.30;64.90
13711;DHT22;6927;51.256;9.410;2024-03-08T08:51:49;7.90;99.90
13711;DHT22;6927;51.256;9.410;2024-03-08T08:54:15;8.00;99.90
13711;DHT22;6927;51.256;9.410;2024-03-08T08:56:42;8.20;99.90
13711;DHT22;6927;51.256;9.410;2024-03-08T08:59:09;8.40;99.90
13711;DHT22;6927;51.256;9.410;2024-03-08T09:01:35;8.70;99.90
13711;DHT22;6927;51.256;9.410;2024-03-08T09:04:00;9.60;99.90
13711;DHT22;6927;51.256;9.410;2024-03-08T09:06:26;9.80;99.90
13711;DHT22;6927;51.256;9.410;2024-03-08T09:08:51;10.10;99.90
13711;DHT22;6927;51.256;9.410;2024-03-08T09:11:18;10.60;99.90
13711;DHT22;6927;51.256;9.410;2024-03-08T09:13:46;10.80;99.90
13711;DHT22;6927;51.256;9.410;2024-03-08T09:16:12;11.30;99.90
13711;DHT22;6927;51.256;9.410;2024-03-08T09:18:37;12.00;99.90
13711;DHT22;6927;51.256;9.410;2024-03-08T09:21:03;12.20;99.90
13711;DHT22;6927;51.256;9.410;2024-03-08T09:23:30;11.10;99.90
13711;DHT22;6927;51.256;9.410;2024-03-08T09:25:59;10.80;99.90
13711;DHT22;6927;51.256;9.410;2024-03-08T09:28:24;11.50;99.90
13711;DHT22;6927;51.256;9.410;2024-03-08T09:30:50;12.30;99.90
13711;DHT22;6927;51.256;9.410;2024-03-08T09:33:16;12.60;99.90
13711;DHT22;6927;51.256;9.410;2024-03-08T09:35:45;12.30;99.90
13711;DHT22;6927;51.256;9.410;2024-03-08T09:38:12;12.50;99.90
13711;DHT22;6927;51.256;9.410;2024-03-08T09:40:41;11.60;99.90
13711;DHT22;6927;51.256;9.410;2024-03-08T09:43:06;10.90;99.90
13711;DHT22;6927;51.256;9.410;2024-03-08T09:45:35;10.90;99.90
13711;DHT22;6927;51.256;9.410;2024-03-08T09:48:01;10.30;99.90
13711;DHT22;6927;51.256;9.410;2024-03-08T09:50:27;10.00;99.90
13711;DHT22;6927;51.256;9.410;2024-03-08T09:52:55;10.00;99.90
13711;DHT22;6927;51.256;9.410;2024-03-08T09:55:22;10.60;99.90
13711;DHT22;6927;51.256;9.410;2024-03-08T09:57:49;11.80;99.90
13711;DHT22;6927;51.256;9.410;2024-03-08T10:00:35;12.00;99.90
13711;DHT22;6927;51.256;9.410;2024-03-08T10:03:01;12.00;99.90
13711;DHT22;6927;51.256;9.410;2024-03-08T10:05:28;12.10;99.90
13711;DHT22;6927;51.256;9.410;2024-03-08T10:07:56;11.30;99.90
13711;DHT22;6927;51.256;9.410;2024-03-08T10:10:21;12.00;99.90
13711;DHT22;6927;51.256;9.410;2024-03-08T10:12:48;12.40;99.90
13711;DHT22;6927;51.256;9.410;2024-03-08T10:15:18;12.40;99.90
13711;DHT22;6927;51.256;9.410;2024-03-08T10:17:46;12.00;99.90
13711;DHT22;6927;51.256;9.410;2024-03-08T10:20:21;11.50;99.90
13711;DHT22;6927;51.256;9.410;2024-03-08T10:22:49;11.60;99.90
13711;DHT22;6927;51.256;9.410;2024-03-08T10:25:15;11.50;99.90
13711;DHT22;6927;51.256;9.410;2024-03-08T10:27:41;11.00;99.90
13711;DHT22;6927;51.256;9.410;2024-03-08T10:30:11;10.60;99.90
13711;DHT22;6927;51.256;9.410;2024-03-08T10:32:40;9.90;99.90
13711;DHT22;6927;51.256;9.410;2024-03-08T10:35:10;10.10;99.90
13711;DHT22;6927;51.256;9.410;2024-03-08T10:37:47;9.70;99.90
13711;DHT22;6927;51.256;9.410;2024-03-08T10:40:20;9.50;99.90
13711;DHT22;6927;51.256;9.410;2024-03-08T10:42:58;9.00;99.90
13711;DHT22;6927;51.256;9.410;2024-03-08T10:50:49;9.10;99.90
13711;DHT22;6927;51.256;9.410;2024-03-08T10:53:19;8.80;99.90
13711;DHT22;6927;51.256;9.410;2024-03-08T10:55:47;8.80;99.90
13711;DHT22;6927;51.256;9.410;2024-03-08T10:58:15;9.20;99.90
13711;DHT22;6927;51.256;9.410;2024-03-08T11:00:42;9.50;99.90
13711;DHT22;6927;51.256;9.410;2024-03-08T11:06:16;9.60;99.90
13711;DHT22;6927;51.256;9.410;2024-03-08T11:08:49;9.20;99.90
13711;DHT22;6927;51.256;9.410;2024-03-08T11:11:33;9.50;99.90
13711;DHT22;6927;51.256;9.410;2024-03-08T11:14:43;9.70;99.90
13711;DHT22;6927;51.256;9.410;2024-03-08T11:17:09;9.50;99.90
13711;DHT22;6927;51.256;9.410;2024-03-08T11:23:29;10.00;99.90
13711;DHT22;6927;51.256;9.410;2024-03-08T11:36:10;9.50;99.90
13711;DHT22;6927;51.256;9.410;2024-03-08T11:38:45;9.50;99.90
13711;DHT22;6927;51.256;9.410;2024-03-08T11:41:17;9.80;99.90
13711;DHT22;6927;51.256;9.410;2024-03-08T11:43:43;9.60;99.90
13711;DHT22;6927;51.256;9.410;2024-03-08T11:46:10;9.90;99.90
13711;DHT22;6927;51.256;9.410;2024-03-08T11:48:40;10.40;99.90
13711;DHT22;6927;51.256;9.410;2024-03-08T11:51:13;10.30;99.90
13711;DHT22;6927;51.256;9.410;2024-03-08T11:53:39;10.00;99.90
13711;DHT22;6927;51.256;9.410;2024-03-08T11:56:14;10.00;99.90
13711;DHT22;6927;51.256;9.410;2024-03-08T11:58:40;10.40;99.90
13711;DHT22;6927;51.256;9.410;2024-03-08T12:01:07;10.80;99.90
13711;DHT22;6927;51.256;9.410;2024-03-08T12:03:34;11.20;99.90
13711;DHT22;6927;51.256;9.410;2024-03-08T12:06:03;11.30;99.90
13711;DHT22;6927;51.256;9.410;2024-03-08T12:08:30;11.20;99.90
13711;DHT22;6927;51.256;9.410;2024-03-08T12:10:57;11.00;99.90
13711;DHT22;6927;51.256;9.410;2024-03-08T12:13:29;10.40;99.90
13711;DHT22;6927;51.256;9.410;2024-03-08T12:15:59;10.20;99.90
13711;DHT22;6927;51.256;9.410;2024-03-08T12:18:28;9.90;99.90
13711;DHT22;6927;51.256;9.410;2024-03-08T12:21:12;10.00;99.90
13711;DHT22;6927;51.256;9.410;2024-03-08T12:23:44;10.10;99.90
13711;DHT22;6927;51.256;9.410;2024-03-08T12:26:24;10.60;99.90
13711;DHT22;6927;51.256;9.410;2024-03-08T12:28:51;11.10;99.90
13711;DHT22;6927;51.256;9.410;2024-03-08T12:31:17;11.80;99.90
13711;DHT22;6927;51.256;9.410;2024-03-08T12:33:54;11.30;99.90
13711;DHT22;6927;51.256;9.410;2024-03-08T12:36:20;11.10;99.90
13711;DHT22;6927;51.256;9.410;2024-03-08T12:38:49;10.90;99.90
13711;DHT22;6927;51.256;9.410;2024-03-08T12:41:19;11.20;99.90
13711;DHT22;6927;51.256;9.410;2024-03-08T12:43:45;11.60;99.90
13711;DHT22;6927;51.256;9.410;2024-03-08T12:48:41;11.20;99.90
13711;DHT22;6927;51.256;9.410;2024-03-08T12:51:07;11.00;99.90
13711;DHT22;6927;51.256;9.410;2024-03-08T12:53:34;11.00;99.90
13711;DHT22;6927;51.256;9.410;2024-03-08T12:56:00;11.00;99.90
13711;DHT22;6927;51.256;9.410;2024-03-08T12:58:26;10.50;99.90
13711;DHT22;6927;51.256;9.410;2024-03-08T13:00:52;10.70;99.90
13711;DHT22;6927;51.256;9.410;2024-03-08T13:03:17;10.30;99.90
13711;DHT22;6927;51.256;9.410;2024-03-08T13:05:43;10.40;99.90
13711;DHT22;6927;51.256;9.410;2024-03-08T13:08:09;10.50;99.90
13711;DHT22;6927;51.256;9.410;2024-03-08T13:10:41;10.00;99.90
13711;DHT22;6927;51.256;9.410;2024-03-08T13:13:09;9.70;99.90
13711;DHT22;6927;51.256;9.410;2024-03-08T13:15:35;10.00;99.90
13711;DHT22;6927;51.256;9.410;2024-03-08T13:18:01;9.80;99.90
13711;DHT22;6927;51.256;9.410;2024-03-08T13:20:28;9.90;99.90
13711;DHT22;6927;51.256;9.410;2024-03-08T13:22:55;10.30;99.90
13711;DHT22;6927;51.256;9.410;2024-03-08T13:25:21;10.50;99.90
13711;DHT22;6927;51.256;9.410;2024-03-08T13:27:46;10.10;99.90
13711;DHT22;6927;51.256;9.410;2024-03-08T13:30:13;10.00;99.90
13711;DHT22;6927;51.256;9.410;2024-03-08T13:32:42;10.10;99.90
13711;DHT22;6927;51.256;9.410;2024-03-08T13:35:09;10.00;99.90
13711;DHT22;6927;51.256;9.410;2024-03-08T13:37:44;10.30;99.90
13711;DHT22;6927;51.256;9.410;2024-03-08T13:40:10;10.50;99.90
13711;DHT22;6927;51.256;9.410;2024-03-08T13:42:37;10.40;99.90
13711;DHT22;6927;51.256;9.410;2024-03-08T13:45:05;10.20;99.90
13711;DHT22;6927;51.256;9.410;2024-03-08T13:47:32;9.90;99.90
13711;DHT22;6927;51.256;9.410;2024-03-08T13:49:59;10.20;99.90
13711;DHT22;6927;51.256;9.410;2024-03-08T13:52:26;10.50;99.90
13711;DHT22;6927;51.256;9.410;2024-03-08T13:54:55;11.00;99.90
13711;DHT22;6927;51.256;9.410;2024-03-08T13:57:20;11.20;99.90
13711;DHT22;6927;51.256;9.410;2024-03-08T13:59:48;11.60;99.90
13711;DHT22;6927;51.256;9.410;2024-03-08T14:02:16;11.70;99.90
13711;DHT22;6927;51.256;9.410;2024-03-08T14:04:42;11.80;99.90
13711;DHT22;6927;51.256;9.410;2024-03-08T14:07:09;11.90;99.90
13711;DHT22;6927;51.256;9.410;2024-03-08T14:09:36;11.60;99.90
13711;DHT22;6927;51.256;9.410;2024-03-08T14:12:06;11.40;99.90
13711;DHT22;6927;51.256;9.410;2024-03-08T14:14:33;11.40;99.90
13711;DHT22;6927;51.256;9.410;2024-03-08T14:17:03;11.50;99.90
13711;DHT22;6927;51.256;9.410;2024-03-08T14:19:29;11.60;99.90
13711;DHT22;6927;51.256;9.410;2024-03-08T14:21:59;12.00;99.90
13711;DHT22;6927;51.256;9.410;2024-03-08T14:24:25;12.60;99.90
13711;DHT22;6927;51.256;9.410;2024-03-08T14:26:51;13.10;99.90
13711;DHT22;6927;51.256;9.410;2024-03-08T14:29:17;13.00;99.90
13711;DHT22;6927;51.256;9.410;2024-03-08T14:31:44;12.80;99.90
13711;DHT22;6927;51.256;9.410;2024-03-08T14:34:10;12.60;99.90
13711;DHT22;6927;51.256;9.410;2024-03-08T14:36:36;11.70;99.90
13711;DHT22;6927;51.256;9.410;2024-03-08T14:39:02;11.40;99.90
13711;DHT22;6927;51.256;9.410;2024-03-08T14:41:27;11.40;99.90
13711;DHT22;6927;51.256;9.410;2024-03-08T14:43:53;11.40;99.90
13711;DHT22;6927;51.256;9.410;2024-03-08T14:46:19;11.50;99.90
13711;DHT22;6927;51.256;9.410;2024-03-08T14:48:49;11.40;99.90
13711;DHT22;6927;51.256;9.410;2024-03-08T14:51:17;11.30;99.90
13711;DHT22;6927;51.256;9.410;2024-03-08T14:53:45;11.10;99.90
13711;DHT22;6927;51.256;9.410;2024-03-08T14:56:11;11.10;99.90
13711;DHT22;6927;51.256;9.410;2024-03-08T14:58:42;11.30;99.90
13711;DHT22;6927;51.256;9.410;2024-03-08T15:01:10;11.30;99.90
13711;DHT22;6927;51.256;9.410;2024-03-08T15:03:36;11.30;99.90
13711;DHT22;6927;51.256;9.410;2024-03-08T15:06:03;11.40;99.90
13711;DHT22;6927;51.256;9.410;2024-03-08T15:08:34;11.50;99.90
13711;DHT22;6927;51.256;9.410;2024-03-08T15:10:59;11.70;99.90
13711;DHT22;6927;51.256;9.410;2024-03-08T15:13:25;11.60;99.90
13711;DHT22;6927;51.256;9.410;2024-03-08T15:15:59;11.70;99.90
13711;DHT22;6927;51.256;9.410;2024-03-08T15:18:28;11.80;99.90
13711;DHT22;6927;51.256;9.410;2024-03-08T15:21:00;11.40;99.90
13711;DHT22;6927;51.256;9.410;2024-03-08T15:23:25;11.30;99.90
13711;DHT22;6927;51.256;9.410;2024-03-08T15:25:51;11.40;99.90
13711;DHT22;6927;51.256;9.410;2024-03-08T15:28:17;11.60;99.90
13711;DHT22;6927;51.256;9.410;2024-03-08T15:30:46;11.60;99.90
13711;DHT22;6927;51.256;9.410;2024-03-08T15:33:16;11.10;99.90
13711;DHT22;6927;51.256;9.410;2024-03-08T15:35:50;10.70;99.90
13711;DHT22;6927;51.256;9.410;2024-03-08T15:38:23;10.50;99.90
13711;DHT22;6927;51.256;9.410;2024-03-08T15:40:48;10.00;99.90
13711;DHT22;6927;51.256;9.410;2024-03-08T15:43:16;9.80;99.90
13711;DHT22;6927;51.256;9.410;2024-03-08T15:45:45;9.90;99.90
13711;DHT22;6927;51.256;9.410;2024-03-08T15:48:12;9.80;99.90
13711;DHT22;6927;51.256;9.410;2024-03-08T15:50:38;9.90;99.90
13711;DHT22;6927;51.256;9.410;2024-03-08T15:53:04;9.70;99.90
13711;DHT22;6927;51.256;9.410;2024-03-08T15:55:30;9.70;99.90
13711;DHT22;6927;51.256;9.410;2024-03-08T15:57:57;9.60;99.90
13711;DHT22;6927;51.256;9.410;2024-03-08T16:00:26;9.80;99.90
13711;DHT22;6927;51.256;9.410;2024-03-08T16:03:05;9.80;99.90
13711;DHT22;6927;51.256;9.410;2024-03-08T16:05:46;10.30;99.90
13711;DHT22;6927;51.256;9.410;2024-03-08T16:08:14;10.20;99.90
13711;DHT22;6927;51.256;9.410;2024-03-08T16:10:44;10.30;99.90
13711;DHT22;6927;51.256;9.410;2024-03-08T16:13:32;9.90;99.90
13711;DHT22;6927;51.256;9.410;2024-03-08T16:15:58;9.60;99.90
13711;DHT22;6927;51.256;9.410;2024-03-08T16:18:24;9.50;99.90
13711;DHT22;6927;51.256;9.410;2024-03-08T16:20:54;9.40;99.90
13711;DHT22;6927;51.256;9.410;2024-03-08T16:23:24;9.20;99.90
13711;DHT22;6927;51.256;9.410;2024-03-08T16:25:50;8.90;99.90
13711;DHT22;6927;51.256;9.410;2024-03-08T16:28:16;8.80;99.90